Iver, United Kingdom
Current Conditions -  °F | °C
As of 9:50 AM on Tuesday 21 Oct 2014 (Local Time) from EGLL Reporting Station
Few Clouds Few Clouds  
Wind Chill: 55°   Ceiling: Unl
Heat Index: 55°   Visibility: 6mi
Dew Point: 46°   Wind: 29mph
Humidity: 72%   Direction: 280°W
Pressure: 29.59"   Gusts: 43mph
Location:  51.5°N, 0.5°W
Report Text: EGLL 210850Z 28025G37KT 9999 FEW031CB 13/08 Q1002 NOSIG
Loading
Personal Weather Stations






























Interactive Weather Map
Tropical Storm Tracking
New forecast layout! Learn more

10-Day Weather Forecast

Advertisements
Track Severe Weather on mobile